sensor_id;sensor_type;location;lat;lon;timestamp;P1;durP1;ratioP1;P2;durP2;ratioP2
46653;SDS011;38960;51.074;17.004;2023-04-24T00:02:21;21.90;;;19.58;;
46653;SDS011;38960;51.074;17.004;2023-04-24T00:04:47;21.02;;;19.13;;
46653;SDS011;38960;51.074;17.004;2023-04-24T00:07:14;21.70;;;19.60;;
46653;SDS011;38960;51.074;17.004;2023-04-24T00:09:42;21.15;;;19.08;;
46653;SDS011;38960;51.074;17.004;2023-04-24T00:12:08;21.38;;;19.27;;
46653;SDS011;38960;51.074;17.004;2023-04-24T00:14:34;20.30;;;18.50;;
46653;SDS011;38960;51.074;17.004;2023-04-24T00:17:00;20.83;;;18.88;;
46653;SDS011;38960;51.074;17.004;2023-04-24T00:19:27;20.55;;;18.55;;
46653;SDS011;38960;51.074;17.004;2023-04-24T00:21:53;20.20;;;18.23;;
46653;SDS011;38960;51.074;17.004;2023-04-24T00:24:19;19.73;;;17.55;;
46653;SDS011;38960;51.074;17.004;2023-04-24T00:26:45;20.05;;;18.05;;
46653;SDS011;38960;51.074;17.004;2023-04-24T00:29:11;19.13;;;17.42;;
46653;SDS011;38960;51.074;17.004;2023-04-24T00:31:36;20.10;;;18.13;;
46653;SDS011;38960;51.074;17.004;2023-04-24T00:34:02;19.75;;;17.80;;
46653;SDS011;38960;51.074;17.004;2023-04-24T00:36:28;20.10;;;16.95;;
46653;SDS011;38960;51.074;17.004;2023-04-24T00:38:54;20.27;;;18.27;;
46653;SDS011;38960;51.074;17.004;2023-04-24T00:41:20;19.55;;;17.75;;
46653;SDS011;38960;51.074;17.004;2023-04-24T00:43:47;19.63;;;17.73;;
46653;SDS011;38960;51.074;17.004;2023-04-24T00:46:12;19.30;;;17.48;;
46653;SDS011;38960;51.074;17.004;2023-04-24T00:48:39;20.40;;;18.60;;
46653;SDS011;38960;51.074;17.004;2023-04-24T00:51:06;19.05;;;17.15;;
46653;SDS011;38960;51.074;17.004;2023-04-24T00:53:31;19.77;;;18.08;;
46653;SDS011;38960;51.074;17.004;2023-04-24T00:55:57;20.08;;;18.08;;
46653;SDS011;38960;51.074;17.004;2023-04-24T00:58:24;20.15;;;18.27;;
46653;SDS011;38960;51.074;17.004;2023-04-24T01:00:50;24.00;;;17.90;;
46653;SDS011;38960;51.074;17.004;2023-04-24T01:03:21;17.92;;;16.42;;
46653;SDS011;38960;51.074;17.004;2023-04-24T01:05:48;18.60;;;16.42;;
46653;SDS011;38960;51.074;17.004;2023-04-24T01:08:14;19.25;;;17.00;;
46653;SDS011;38960;51.074;17.004;2023-04-24T01:10:40;18.33;;;16.60;;
46653;SDS011;38960;51.074;17.004;2023-04-24T01:13:07;19.45;;;17.65;;
46653;SDS011;38960;51.074;17.004;2023-04-24T01:15:33;18.80;;;16.98;;
46653;SDS011;38960;51.074;17.004;2023-04-24T01:17:59;19.45;;;17.48;;
46653;SDS011;38960;51.074;17.004;2023-04-24T01:20:25;18.83;;;17.05;;
46653;SDS011;38960;51.074;17.004;2023-04-24T01:22:51;18.60;;;16.83;;
46653;SDS011;38960;51.074;17.004;2023-04-24T01:25:17;19.42;;;17.40;;
46653;SDS011;38960;51.074;17.004;2023-04-24T01:27:43;19.80;;;18.00;;
46653;SDS011;38960;51.074;17.004;2023-04-24T01:30:10;20.00;;;17.02;;
46653;SDS011;38960;51.074;17.004;2023-04-24T01:32:37;20.13;;;18.02;;
46653;SDS011;38960;51.074;17.004;2023-04-24T01:35:03;19.40;;;17.38;;
46653;SDS011;38960;51.074;17.004;2023-04-24T01:37:29;18.60;;;17.00;;
46653;SDS011;38960;51.074;17.004;2023-04-24T01:39:55;19.35;;;17.55;;
46653;SDS011;38960;51.074;17.004;2023-04-24T01:42:21;18.63;;;16.75;;
46653;SDS011;38960;51.074;17.004;2023-04-24T01:44:46;18.88;;;16.92;;
46653;SDS011;38960;51.074;17.004;2023-04-24T01:47:12;19.10;;;17.35;;
46653;SDS011;38960;51.074;17.004;2023-04-24T01:49:38;18.73;;;16.88;;
46653;SDS011;38960;51.074;17.004;2023-04-24T01:52:04;20.40;;;17.55;;
46653;SDS011;38960;51.074;17.004;2023-04-24T01:54:30;19.35;;;17.55;;
46653;SDS011;38960;51.074;17.004;2023-04-24T01:56:55;18.83;;;16.83;;
46653;SDS011;38960;51.074;17.004;2023-04-24T01:59:21;17.70;;;15.98;;
46653;SDS011;38960;51.074;17.004;2023-04-24T02:01:47;18.73;;;17.10;;
46653;SDS011;38960;51.074;17.004;2023-04-24T02:04:12;18.65;;;16.95;;
46653;SDS011;38960;51.074;17.004;2023-04-24T02:06:39;18.92;;;17.13;;
46653;SDS011;38960;51.074;17.004;2023-04-24T02:09:05;19.35;;;17.33;;
46653;SDS011;38960;51.074;17.004;2023-04-24T02:11:31;19.60;;;17.65;;
46653;SDS011;38960;51.074;17.004;2023-04-24T02:13:56;19.00;;;17.27;;
46653;SDS011;38960;51.074;17.004;2023-04-24T02:16:22;19.83;;;17.77;;
46653;SDS011;38960;51.074;17.004;2023-04-24T02:18:49;19.20;;;17.40;;
46653;SDS011;38960;51.074;17.004;2023-04-24T02:21:16;18.52;;;16.77;;
46653;SDS011;38960;51.074;17.004;2023-04-24T02:23:41;20.17;;;18.10;;
46653;SDS011;38960;51.074;17.004;2023-04-24T02:26:07;19.02;;;17.20;;
46653;SDS011;38960;51.074;17.004;2023-04-24T02:28:32;18.77;;;16.88;;
46653;SDS011;38960;51.074;17.004;2023-04-24T02:30:58;18.58;;;16.85;;
46653;SDS011;38960;51.074;17.004;2023-04-24T02:33:23;20.27;;;18.27;;
46653;SDS011;38960;51.074;17.004;2023-04-24T02:35:49;19.58;;;17.77;;
46653;SDS011;38960;51.074;17.004;2023-04-24T02:38:15;17.95;;;16.45;;
46653;SDS011;38960;51.074;17.004;2023-04-24T02:40:42;19.83;;;17.85;;
46653;SDS011;38960;51.074;17.004;2023-04-24T02:43:09;18.77;;;16.77;;
46653;SDS011;38960;51.074;17.004;2023-04-24T02:45:34;19.15;;;17.17;;
46653;SDS011;38960;51.074;17.004;2023-04-24T02:48:00;20.02;;;18.08;;
46653;SDS011;38960;51.074;17.004;2023-04-24T02:50:25;18.88;;;17.25;;
46653;SDS011;38960;51.074;17.004;2023-04-24T02:52:51;19.35;;;17.45;;
46653;SDS011;38960;51.074;17.004;2023-04-24T02:55:17;20.08;;;18.15;;
46653;SDS011;38960;51.074;17.004;2023-04-24T02:57:42;19.17;;;17.45;;
46653;SDS011;38960;51.074;17.004;2023-04-24T03:00:08;19.83;;;18.02;;
46653;SDS011;38960;51.074;17.004;2023-04-24T03:02:34;19.75;;;18.05;;
46653;SDS011;38960;51.074;17.004;2023-04-24T03:04:59;21.75;;;18.40;;
46653;SDS011;38960;51.074;17.004;2023-04-24T03:07:25;20.25;;;18.48;;
46653;SDS011;38960;51.074;17.004;2023-04-24T03:09:51;20.05;;;18.10;;
46653;SDS011;38960;51.074;17.004;2023-04-24T03:12:16;20.52;;;18.45;;
46653;SDS011;38960;51.074;17.004;2023-04-24T03:14:43;21.52;;;19.50;;
46653;SDS011;38960;51.074;17.004;2023-04-24T03:17:08;21.20;;;19.35;;
46653;SDS011;38960;51.074;17.004;2023-04-24T03:19:34;19.92;;;18.15;;
46653;SDS011;38960;51.074;17.004;2023-04-24T03:22:05;19.40;;;17.70;;
46653;SDS011;38960;51.074;17.004;2023-04-24T03:24:31;20.23;;;18.33;;
46653;SDS011;38960;51.074;17.004;2023-04-24T03:26:57;19.73;;;17.73;;
46653;SDS011;38960;51.074;17.004;2023-04-24T03:29:48;18.83;;;17.20;;
46653;SDS011;38960;51.074;17.004;2023-04-24T03:32:19;19.13;;;17.43;;
46653;SDS011;38960;51.074;17.004;2023-04-24T03:34:46;20.48;;;18.58;;
46653;SDS011;38960;51.074;17.004;2023-04-24T03:37:13;19.35;;;17.58;;
46653;SDS011;38960;51.074;17.004;2023-04-24T03:39:44;20.20;;;18.45;;
46653;SDS011;38960;51.074;17.004;2023-04-24T03:42:10;20.55;;;18.65;;
46653;SDS011;38960;51.074;17.004;2023-04-24T03:44:47;20.27;;;18.23;;
46653;SDS011;38960;51.074;17.004;2023-04-24T03:47:13;21.20;;;19.15;;
46653;SDS011;38960;51.074;17.004;2023-04-24T03:49:39;20.98;;;19.13;;
46653;SDS011;38960;51.074;17.004;2023-04-24T03:52:05;20.20;;;18.42;;
46653;SDS011;38960;51.074;17.004;2023-04-24T03:54:31;19.77;;;17.95;;
46653;SDS011;38960;51.074;17.004;2023-04-24T03:56:56;21.77;;;19.65;;
46653;SDS011;38960;51.074;17.004;2023-04-24T03:59:24;20.60;;;18.90;;
46653;SDS011;38960;51.074;17.004;2023-04-24T04:02:08;20.90;;;19.17;;
46653;SDS011;38960;51.074;17.004;2023-04-24T04:04:34;21.08;;;19.20;;
46653;SDS011;38960;51.074;17.004;2023-04-24T04:06:59;20.65;;;18.73;;
46653;SDS011;38960;51.074;17.004;2023-04-24T04:09:26;21.45;;;18.92;;
46653;SDS011;38960;51.074;17.004;2023-04-24T04:11:52;23.83;;;19.23;;
46653;SDS011;38960;51.074;17.004;2023-04-24T04:14:18;20.80;;;18.65;;
46653;SDS011;38960;51.074;17.004;2023-04-24T04:16:46;20.48;;;18.67;;
46653;SDS011;38960;51.074;17.004;2023-04-24T04:19:13;21.02;;;19.00;;
46653;SDS011;38960;51.074;17.004;2023-04-24T04:21:38;20.02;;;18.38;;
46653;SDS011;38960;51.074;17.004;2023-04-24T04:24:13;20.55;;;18.63;;
46653;SDS011;38960;51.074;17.004;2023-04-24T04:26:43;19.75;;;17.90;;
46653;SDS011;38960;51.074;17.004;2023-04-24T04:29:17;19.63;;;18.00;;
46653;SDS011;38960;51.074;17.004;2023-04-24T04:31:57;18.88;;;17.40;;
46653;SDS011;38960;51.074;17.004;2023-04-24T04:34:23;19.48;;;17.48;;
46653;SDS011;38960;51.074;17.004;2023-04-24T04:36:50;18.17;;;16.75;;
46653;SDS011;38960;51.074;17.004;2023-04-24T04:39:38;18.65;;;17.05;;
46653;SDS011;38960;51.074;17.004;2023-04-24T04:42:08;19.00;;;17.15;;
46653;SDS011;38960;51.074;17.004;2023-04-24T04:44:41;19.90;;;18.27;;
46653;SDS011;38960;51.074;17.004;2023-04-24T04:47:10;19.90;;;18.15;;
46653;SDS011;38960;51.074;17.004;2023-04-24T04:49:37;19.73;;;17.92;;
46653;SDS011;38960;51.074;17.004;2023-04-24T04:52:07;20.23;;;18.30;;
46653;SDS011;38960;51.074;17.004;2023-04-24T04:54:33;19.45;;;17.75;;
46653;SDS011;38960;51.074;17.004;2023-04-24T04:56:58;20.45;;;18.52;;
46653;SDS011;38960;51.074;17.004;2023-04-24T04:59:24;19.63;;;17.92;;
46653;SDS011;38960;51.074;17.004;2023-04-24T05:01:56;18.58;;;16.92;;
46653;SDS011;38960;51.074;17.004;2023-04-24T05:04:22;19.02;;;17.33;;
46653;SDS011;38960;51.074;17.004;2023-04-24T05:06:48;19.23;;;17.58;;
46653;SDS011;38960;51.074;17.004;2023-04-24T05:09:14;19.35;;;17.65;;
46653;SDS011;38960;51.074;17.004;2023-04-24T05:11:53;19.70;;;17.88;;
46653;SDS011;38960;51.074;17.004;2023-04-24T05:14:20;19.00;;;17.05;;
46653;SDS011;38960;51.074;17.004;2023-04-24T05:16:46;19.27;;;17.55;;
46653;SDS011;38960;51.074;17.004;2023-04-24T05:19:13;18.60;;;17.10;;
46653;SDS011;38960;51.074;17.004;2023-04-24T05:21:40;18.92;;;17.35;;
46653;SDS011;38960;51.074;17.004;2023-04-24T05:24:07;19.80;;;16.13;;
46653;SDS011;38960;51.074;17.004;2023-04-24T05:26:44;19.13;;;17.08;;
46653;SDS011;38960;51.074;17.004;2023-04-24T05:29:11;18.10;;;16.35;;
46653;SDS011;38960;51.074;17.004;2023-04-24T05:31:37;17.30;;;15.70;;
46653;SDS011;38960;51.074;17.004;2023-04-24T05:34:03;17.55;;;15.98;;
46653;SDS011;38960;51.074;17.004;2023-04-24T05:36:30;17.15;;;15.40;;
46653;SDS011;38960;51.074;17.004;2023-04-24T05:38:57;19.27;;;17.48;;
46653;SDS011;38960;51.074;17.004;2023-04-24T05:41:22;17.42;;;15.63;;
46653;SDS011;38960;51.074;17.004;2023-04-24T05:43:48;16.75;;;15.40;;
46653;SDS011;38960;51.074;17.004;2023-04-24T05:46:13;17.08;;;15.57;;
46653;SDS011;38960;51.074;17.004;2023-04-24T05:48:39;16.90;;;15.55;;
46653;SDS011;38960;51.074;17.004;2023-04-24T05:51:04;16.38;;;14.98;;
46653;SDS011;38960;51.074;17.004;2023-04-24T05:53:30;15.90;;;14.50;;
46653;SDS011;38960;51.074;17.004;2023-04-24T05:55:56;17.17;;;15.57;;
46653;SDS011;38960;51.074;17.004;2023-04-24T05:58:22;14.88;;;13.70;;
46653;SDS011;38960;51.074;17.004;2023-04-24T06:00:48;15.02;;;13.93;;
46653;SDS011;38960;51.074;17.004;2023-04-24T06:03:15;15.00;;;13.70;;
46653;SDS011;38960;51.074;17.004;2023-04-24T06:05:41;14.93;;;13.43;;
46653;SDS011;38960;51.074;17.004;2023-04-24T06:08:07;14.23;;;13.23;;
46653;SDS011;38960;51.074;17.004;2023-04-24T06:10:36;14.95;;;13.55;;
46653;SDS011;38960;51.074;17.004;2023-04-24T06:13:04;16.63;;;14.90;;
46653;SDS011;38960;51.074;17.004;2023-04-24T06:15:30;14.43;;;13.13;;
46653;SDS011;38960;51.074;17.004;2023-04-24T06:18:04;15.15;;;13.85;;
46653;SDS011;38960;51.074;17.004;2023-04-24T06:20:30;15.15;;;13.40;;
46653;SDS011;38960;51.074;17.004;2023-04-24T06:22:55;15.68;;;14.38;;
46653;SDS011;38960;51.074;17.004;2023-04-24T06:25:21;15.18;;;13.85;;
46653;SDS011;38960;51.074;17.004;2023-04-24T06:27:49;14.40;;;13.13;;
46653;SDS011;38960;51.074;17.004;2023-04-24T06:30:15;15.30;;;14.02;;
46653;SDS011;38960;51.074;17.004;2023-04-24T06:32:40;14.57;;;13.27;;
46653;SDS011;38960;51.074;17.004;2023-04-24T06:35:06;14.27;;;13.27;;
46653;SDS011;38960;51.074;17.004;2023-04-24T06:37:33;14.23;;;12.75;;
46653;SDS011;38960;51.074;17.004;2023-04-24T06:39:58;13.35;;;12.35;;
46653;SDS011;38960;51.074;17.004;2023-04-24T06:42:24;15.45;;;14.05;;
46653;SDS011;38960;51.074;17.004;2023-04-24T06:44:50;15.50;;;13.73;;
46653;SDS011;38960;51.074;17.004;2023-04-24T06:47:15;17.35;;;16.05;;
46653;SDS011;38960;51.074;17.004;2023-04-24T06:49:41;14.85;;;13.38;;
46653;SDS011;38960;51.074;17.004;2023-04-24T06:52:07;15.40;;;13.98;;
46653;SDS011;38960;51.074;17.004;2023-04-24T06:54:33;15.45;;;14.10;;
46653;SDS011;38960;51.074;17.004;2023-04-24T06:56:59;15.70;;;14.15;;
46653;SDS011;38960;51.074;17.004;2023-04-24T06:59:26;15.98;;;14.50;;
46653;SDS011;38960;51.074;17.004;2023-04-24T07:01:52;15.38;;;13.88;;
46653;SDS011;38960;51.074;17.004;2023-04-24T07:04:18;15.43;;;14.13;;
46653;SDS011;38960;51.074;17.004;2023-04-24T07:06:47;14.98;;;13.55;;
46653;SDS011;38960;51.074;17.004;2023-04-24T07:09:14;15.02;;;13.50;;
46653;SDS011;38960;51.074;17.004;2023-04-24T07:11:41;15.95;;;14.20;;
46653;SDS011;38960;51.074;17.004;2023-04-24T07:14:07;15.23;;;13.45;;
46653;SDS011;38960;51.074;17.004;2023-04-24T07:16:32;14.63;;;13.07;;
46653;SDS011;38960;51.074;17.004;2023-04-24T07:18:58;15.48;;;14.15;;
46653;SDS011;38960;51.074;17.004;2023-04-24T07:21:26;14.65;;;13.43;;
46653;SDS011;38960;51.074;17.004;2023-04-24T07:23:52;15.48;;;14.02;;
46653;SDS011;38960;51.074;17.004;2023-04-24T07:26:19;14.77;;;13.57;;
46653;SDS011;38960;51.074;17.004;2023-04-24T07:28:45;13.88;;;12.68;;
46653;SDS011;38960;51.074;17.004;2023-04-24T07:31:11;15.20;;;13.80;;
46653;SDS011;38960;51.074;17.004;2023-04-24T07:33:37;15.80;;;14.27;;
46653;SDS011;38960;51.074;17.004;2023-04-24T07:36:03;14.13;;;13.18;;
46653;SDS011;38960;51.074;17.004;2023-04-24T07:38:29;15.25;;;13.73;;
46653;SDS011;38960;51.074;17.004;2023-04-24T07:40:55;14.95;;;13.63;;
46653;SDS011;38960;51.074;17.004;2023-04-24T07:43:21;15.77;;;14.35;;
46653;SDS011;38960;51.074;17.004;2023-04-24T07:45:47;15.65;;;14.30;;
46653;SDS011;38960;51.074;17.004;2023-04-24T07:48:12;15.85;;;14.45;;
46653;SDS011;38960;51.074;17.004;2023-04-24T07:50:41;14.15;;;12.93;;
46653;SDS011;38960;51.074;17.004;2023-04-24T07:53:07;13.73;;;12.63;;
46653;SDS011;38960;51.074;17.004;2023-04-24T07:55:33;13.68;;;12.57;;
46653;SDS011;38960;51.074;17.004;2023-04-24T07:57:58;14.73;;;13.25;;
46653;SDS011;38960;51.074;17.004;2023-04-24T08:00:24;14.38;;;13.07;;
46653;SDS011;38960;51.074;17.004;2023-04-24T08:02:50;14.68;;;13.35;;
46653;SDS011;38960;51.074;17.004;2023-04-24T08:05:15;17.10;;;14.43;;
46653;SDS011;38960;51.074;17.004;2023-04-24T08:07:41;17.70;;;14.77;;
46653;SDS011;38960;51.074;17.004;2023-04-24T08:10:11;20.65;;;13.52;;
46653;SDS011;38960;51.074;17.004;2023-04-24T08:12:37;17.90;;;13.90;;
46653;SDS011;38960;51.074;17.004;2023-04-24T08:15:03;15.32;;;13.48;;
46653;SDS011;38960;51.074;17.004;2023-04-24T08:17:29;14.10;;;12.90;;
46653;SDS011;38960;51.074;17.004;2023-04-24T08:19:55;14.40;;;13.15;;
46653;SDS011;38960;51.074;17.004;2023-04-24T08:22:26;20.23;;;12.05;;
46653;SDS011;38960;51.074;17.004;2023-04-24T08:24:52;18.58;;;13.45;;
46653;SDS011;38960;51.074;17.004;2023-04-24T08:27:18;14.73;;;13.15;;
46653;SDS011;38960;51.074;17.004;2023-04-24T08:29:44;14.75;;;13.32;;
46653;SDS011;38960;51.074;17.004;2023-04-24T08:32:09;17.77;;;13.18;;
46653;SDS011;38960;51.074;17.004;2023-04-24T08:34:35;14.20;;;12.80;;
46653;SDS011;38960;51.074;17.004;2023-04-24T08:37:00;16.20;;;12.45;;
46653;SDS011;38960;51.074;17.004;2023-04-24T08:39:27;14.90;;;12.00;;
46653;SDS011;38960;51.074;17.004;2023-04-24T08:41:53;12.95;;;11.85;;
46653;SDS011;38960;51.074;17.004;2023-04-24T08:44:19;13.50;;;12.18;;
46653;SDS011;38960;51.074;17.004;2023-04-24T08:46:45;16.45;;;12.50;;
46653;SDS011;38960;51.074;17.004;2023-04-24T08:49:15;13.27;;;12.38;;
46653;SDS011;38960;51.074;17.004;2023-04-24T08:51:42;12.50;;;11.60;;
46653;SDS011;38960;51.074;17.004;2023-04-24T08:54:09;12.60;;;11.50;;
46653;SDS011;38960;51.074;17.004;2023-04-24T08:56:37;12.15;;;11.27;;
46653;SDS011;38960;51.074;17.004;2023-04-24T08:59:08;12.43;;;11.50;;
46653;SDS011;38960;51.074;17.004;2023-04-24T09:01:34;12.48;;;11.68;;
46653;SDS011;38960;51.074;17.004;2023-04-24T09:04:01;13.57;;;12.57;;
46653;SDS011;38960;51.074;17.004;2023-04-24T09:06:29;15.25;;;13.80;;
46653;SDS011;38960;51.074;17.004;2023-04-24T09:08:59;13.70;;;12.23;;
46653;SDS011;38960;51.074;17.004;2023-04-24T09:11:25;12.85;;;12.05;;
46653;SDS011;38960;51.074;17.004;2023-04-24T09:13:52;13.57;;;12.50;;
46653;SDS011;38960;51.074;17.004;2023-04-24T09:16:19;12.88;;;11.88;;
46653;SDS011;38960;51.074;17.004;2023-04-24T09:18:45;13.15;;;11.82;;
46653;SDS011;38960;51.074;17.004;2023-04-24T09:21:11;13.45;;;12.25;;
46653;SDS011;38960;51.074;17.004;2023-04-24T09:23:36;12.95;;;11.85;;
46653;SDS011;38960;51.074;17.004;2023-04-24T09:26:02;12.15;;;11.35;;
46653;SDS011;38960;51.074;17.004;2023-04-24T09:28:34;13.35;;;12.20;;
46653;SDS011;38960;51.074;17.004;2023-04-24T09:31:08;13.82;;;12.73;;
46653;SDS011;38960;51.074;17.004;2023-04-24T09:33:39;13.05;;;12.05;;
46653;SDS011;38960;51.074;17.004;2023-04-24T09:36:04;12.43;;;11.43;;
46653;SDS011;38960;51.074;17.004;2023-04-24T09:38:35;12.02;;;11.07;;
46653;SDS011;38960;51.074;17.004;2023-04-24T09:41:05;14.53;;;13.07;;
46653;SDS011;38960;51.074;17.004;2023-04-24T09:43:32;12.93;;;12.00;;
46653;SDS011;38960;51.074;17.004;2023-04-24T09:45:58;13.18;;;12.18;;
46653;SDS011;38960;51.074;17.004;2023-04-24T09:48:29;18.77;;;12.23;;
46653;SDS011;38960;51.074;17.004;2023-04-24T09:50:56;13.75;;;12.32;;
46653;SDS011;38960;51.074;17.004;2023-04-24T09:53:24;13.80;;;12.60;;
46653;SDS011;38960;51.074;17.004;2023-04-24T09:55:51;14.32;;;13.15;;
46653;SDS011;38960;51.074;17.004;2023-04-24T09:58:24;14.43;;;13.23;;
46653;SDS011;38960;51.074;17.004;2023-04-24T10:00:55;14.07;;;13.07;;
46653;SDS011;38960;51.074;17.004;2023-04-24T10:03:23;13.48;;;12.30;;
46653;SDS011;38960;51.074;17.004;2023-04-24T10:05:51;12.85;;;11.95;;
46653;SDS011;38960;51.074;17.004;2023-04-24T10:08:17;13.68;;;12.73;;
46653;SDS011;38960;51.074;17.004;2023-04-24T10:10:44;13.43;;;12.18;;
46653;SDS011;38960;51.074;17.004;2023-04-24T10:13:10;12.90;;;11.80;;
46653;SDS011;38960;51.074;17.004;2023-04-24T10:15:37;15.18;;;14.18;;
46653;SDS011;38960;51.074;17.004;2023-04-24T10:18:04;12.95;;;11.93;;
46653;SDS011;38960;51.074;17.004;2023-04-24T10:20:31;13.00;;;12.02;;
46653;SDS011;38960;51.074;17.004;2023-04-24T10:22:57;13.40;;;12.40;;
46653;SDS011;38960;51.074;17.004;2023-04-24T10:25:24;14.00;;;12.80;;
46653;SDS011;38960;51.074;17.004;2023-04-24T10:27:55;13.93;;;12.85;;
46653;SDS011;38960;51.074;17.004;2023-04-24T10:30:25;14.13;;;12.93;;
46653;SDS011;38960;51.074;17.004;2023-04-24T10:32:52;14.02;;;13.00;;
46653;SDS011;38960;51.074;17.004;2023-04-24T10:35:17;16.17;;;14.68;;
46653;SDS011;38960;51.074;17.004;2023-04-24T10:37:54;12.45;;;11.18;;
46653;SDS011;38960;51.074;17.004;2023-04-24T10:40:26;11.13;;;10.20;;
46653;SDS011;38960;51.074;17.004;2023-04-24T10:42:53;13.45;;;11.80;;
46653;SDS011;38960;51.074;17.004;2023-04-24T10:45:19;13.00;;;12.15;;
46653;SDS011;38960;51.074;17.004;2023-04-24T10:48:06;13.40;;;12.45;;
46653;SDS011;38960;51.074;17.004;2023-04-24T10:53:12;12.82;;;11.82;;
46653;SDS011;38960;51.074;17.004;2023-04-24T10:55:47;14.77;;;13.57;;
46653;SDS011;38960;51.074;17.004;2023-04-24T10:58:14;15.95;;;14.55;;
46653;SDS011;38960;51.074;17.004;2023-04-24T11:00:42;17.10;;;15.60;;
46653;SDS011;38960;51.074;17.004;2023-04-24T11:03:22;17.73;;;13.63;;
46653;SDS011;38960;51.074;17.004;2023-04-24T11:05:56;14.80;;;13.73;;
46653;SDS011;38960;51.074;17.004;2023-04-24T11:10:57;14.23;;;13.15;;
46653;SDS011;38960;51.074;17.004;2023-04-24T11:21:54;15.27;;;13.75;;
46653;SDS011;38960;51.074;17.004;2023-04-24T11:27:05;14.48;;;13.25;;
46653;SDS011;38960;51.074;17.004;2023-04-24T11:29:38;14.25;;;13.07;;
46653;SDS011;38960;51.074;17.004;2023-04-24T11:35:18;15.30;;;13.95;;
46653;SDS011;38960;51.074;17.004;2023-04-24T11:37:46;14.57;;;13.25;;
46653;SDS011;38960;51.074;17.004;2023-04-24T11:40:16;13.87;;;12.73;;
46653;SDS011;38960;51.074;17.004;2023-04-24T11:42:46;14.52;;;13.52;;
46653;SDS011;38960;51.074;17.004;2023-04-24T11:47:39;13.45;;;12.23;;
46653;SDS011;38960;51.074;17.004;2023-04-24T11:50:06;13.55;;;12.75;;
46653;SDS011;38960;51.074;17.004;2023-04-24T11:52:36;13.23;;;12.20;;
46653;SDS011;38960;51.074;17.004;2023-04-24T11:55:03;14.27;;;12.80;;
46653;SDS011;38960;51.074;17.004;2023-04-24T11:57:29;14.15;;;12.68;;
46653;SDS011;38960;51.074;17.004;2023-04-24T11:59:59;13.70;;;12.80;;
46653;SDS011;38960;51.074;17.004;2023-04-24T12:02:26;14.23;;;13.15;;
46653;SDS011;38960;51.074;17.004;2023-04-24T12:04:55;14.95;;;13.82;;
46653;SDS011;38960;51.074;17.004;2023-04-24T12:07:21;13.20;;;12.18;;
46653;SDS011;38960;51.074;17.004;2023-04-24T12:09:48;13.75;;;12.63;;
46653;SDS011;38960;51.074;17.004;2023-04-24T12:12:18;12.95;;;11.90;;
46653;SDS011;38960;51.074;17.004;2023-04-24T12:17:13;12.88;;;11.55;;
46653;SDS011;38960;51.074;17.004;2023-04-24T12:19:44;13.07;;;11.98;;
46653;SDS011;38960;51.074;17.004;2023-04-24T12:22:11;12.57;;;11.68;;
46653;SDS011;38960;51.074;17.004;2023-04-24T12:24:55;13.60;;;12.30;;
46653;SDS011;38960;51.074;17.004;2023-04-24T12:27:33;12.32;;;11.52;;
46653;SDS011;38960;51.074;17.004;2023-04-24T12:29:59;11.93;;;11.02;;
46653;SDS011;38960;51.074;17.004;2023-04-24T12:32:26;12.23;;;11.30;;
46653;SDS011;38960;51.074;17.004;2023-04-24T12:34:52;13.75;;;12.40;;
46653;SDS011;38960;51.074;17.004;2023-04-24T12:37:18;12.23;;;11.40;;
46653;SDS011;38960;51.074;17.004;2023-04-24T12:40:00;12.30;;;11.20;;
46653;SDS011;38960;51.074;17.004;2023-04-24T12:42:31;13.10;;;11.75;;
46653;SDS011;38960;51.074;17.004;2023-04-24T12:45:01;13.18;;;12.02;;
46653;SDS011;38960;51.074;17.004;2023-04-24T12:47:31;13.20;;;12.05;;
46653;SDS011;38960;51.074;17.004;2023-04-24T12:49:58;12.05;;;11.10;;
46653;SDS011;38960;51.074;17.004;2023-04-24T12:52:24;12.68;;;11.73;;
46653;SDS011;38960;51.074;17.004;2023-04-24T12:54:59;13.55;;;11.85;;
46653;SDS011;38960;51.074;17.004;2023-04-24T12:57:26;14.23;;;11.35;;
46653;SDS011;38960;51.074;17.004;2023-04-24T12:59:56;14.43;;;11.27;;
46653;SDS011;38960;51.074;17.004;2023-04-24T13:02:23;12.75;;;11.57;;
46653;SDS011;38960;51.074;17.004;2023-04-24T13:04:49;13.52;;;12.10;;
46653;SDS011;38960;51.074;17.004;2023-04-24T13:07:16;12.85;;;11.75;;
46653;SDS011;38960;51.074;17.004;2023-04-24T13:09:42;14.32;;;12.95;;
46653;SDS011;38960;51.074;17.004;2023-04-24T13:12:09;12.98;;;11.98;;
46653;SDS011;38960;51.074;17.004;2023-04-24T13:14:35;12.18;;;10.90;;
46653;SDS011;38960;51.074;17.004;2023-04-24T13:17:01;11.88;;;10.77;;
46653;SDS011;38960;51.074;17.004;2023-04-24T13:19:28;11.73;;;10.63;;
46653;SDS011;38960;51.074;17.004;2023-04-24T13:21:54;12.48;;;11.30;;
46653;SDS011;38960;51.074;17.004;2023-04-24T13:24:21;11.73;;;10.63;;
46653;SDS011;38960;51.074;17.004;2023-04-24T13:26:50;11.82;;;11.02;;
46653;SDS011;38960;51.074;17.004;2023-04-24T13:29:16;11.25;;;10.45;;
46653;SDS011;38960;51.074;17.004;2023-04-24T13:31:42;11.70;;;10.80;;
46653;SDS011;38960;51.074;17.004;2023-04-24T13:34:07;11.85;;;10.60;;
46653;SDS011;38960;51.074;17.004;2023-04-24T13:36:33;10.43;;;9.75;;
46653;SDS011;38960;51.074;17.004;2023-04-24T13:38:59;11.73;;;10.57;;
46653;SDS011;38960;51.074;17.004;2023-04-24T13:41:24;11.43;;;10.52;;
46653;SDS011;38960;51.074;17.004;2023-04-24T13:43:50;11.98;;;10.90;;
46653;SDS011;38960;51.074;17.004;2023-04-24T13:46:15;11.38;;;10.48;;
46653;SDS011;38960;51.074;17.004;2023-04-24T13:48:41;11.20;;;10.48;;
46653;SDS011;38960;51.074;17.004;2023-04-24T13:51:07;11.35;;;10.55;;
46653;SDS011;38960;51.074;17.004;2023-04-24T13:53:32;11.88;;;10.90;;
46653;SDS011;38960;51.074;17.004;2023-04-24T13:56:01;11.40;;;10.38;;
46653;SDS011;38960;51.074;17.004;2023-04-24T13:58:27;11.00;;;10.30;;
46653;SDS011;38960;51.074;17.004;2023-04-24T14:00:53;11.25;;;10.38;;
46653;SDS011;38960;51.074;17.004;2023-04-24T14:03:18;12.07;;;11.15;;
46653;SDS011;38960;51.074;17.004;2023-04-24T14:05:44;11.75;;;10.75;;
46653;SDS011;38960;51.074;17.004;2023-04-24T14:08:09;11.57;;;10.77;;
46653;SDS011;38960;51.074;17.004;2023-04-24T14:10:35;11.73;;;10.50;;
46653;SDS011;38960;51.074;17.004;2023-04-24T14:13:00;11.73;;;10.73;;
46653;SDS011;38960;51.074;17.004;2023-04-24T14:15:26;10.63;;;9.93;;
46653;SDS011;38960;51.074;17.004;2023-04-24T14:17:52;11.18;;;10.20;;
46653;SDS011;38960;51.074;17.004;2023-04-24T14:20:20;11.38;;;10.48;;
46653;SDS011;38960;51.074;17.004;2023-04-24T14:22:54;10.90;;;9.90;;
46653;SDS011;38960;51.074;17.004;2023-04-24T14:25:20;10.20;;;9.45;;
46653;SDS011;38960;51.074;17.004;2023-04-24T14:27:47;11.60;;;10.73;;
46653;SDS011;38960;51.074;17.004;2023-04-24T14:30:13;11.30;;;10.50;;
46653;SDS011;38960;51.074;17.004;2023-04-24T14:32:40;11.55;;;10.65;;
46653;SDS011;38960;51.074;17.004;2023-04-24T14:35:06;10.75;;;10.15;;